テルアビブ / ベン・グリオン の空港の天気 - METARとTAF

ベン・グリオン国際空港(テルアビブ) ( LLBG / TLV ) - イスラエル ロード / テルアビブ
飛行場実況気象(Metar)
観測時間08/22 19:50 IDT (08/22 16:50 UTC)
風向・風速北北西 5m/s
視程10km以上
天気現象
なし
気温29℃
湿度62%
気圧1008hPa
METARLLBG 221650Z 34009KT CAVOK 29/21 Q1008 NOSIG
過去の天気等 Google飛行場航空写真 Wunderground天気予報

過去48時間のMETAR

飛行場予報(TAF)
発表時間: 8/22 14:10 IDT (8/22 11:10 UTC)
予報対象時間: 22日15時 IDT ~ 23日15時 IDT
風向・風速北北西 6m/s
視程10km以上
なし
22日17時 IDT ~ 22日19時 IDT に徐々に
風向・風速北北西 3m/s
視程10km以上
少しの雲 雲底高度 760m
22日22時 IDT ~ 22日24時 IDT に徐々に
風向・風速南東 2m/s
23日0時 IDT ~ 23日9時 IDT に一時的に
全天の4割程度の雲 雲底高度 610m
23日9時 IDT ~ 23日11時 IDT に徐々に
風向・風速北西 6m/s
少しの雲 雲底高度 910m
TAF LLBG 221110Z 2212/2312 34012KT CAVOK
BECMG 2214/2216 34005KT 9999 FEW025
BECMG 2219/2221 14004KT
TEMPO 2221/2306 SCT020
BECMG 2306/2308 32012KT FEW030 TX32/2212Z TN24/2303Z